メインページ
METAR-TAF:

METAR-TAF

空港 :

トロント, オンタリオ州, カナダ

トロント・ピアソン国際空港

緯度: 43-40N, 経度: 079-38W, 海抜: 173m

現時点の気象観測

当レポートは1時間35分前の21:00(UTC)に作成
南/南東の風 5kt、からの間で変化する
気温 22°C
湿度 65%
気圧 1018 hPa
視程: 24.1km
高度12000ftの雲は散在している
高度18000ftの千切れ雲あり
高度26000ftの曇り

METAR: CYYZ 262100Z 15005KT 090V170 15SM SCT120 BKN180 OVC260 22/15 A3006 RMK AC4AC1CS3 SLP181 DENSITY ALT 1300FT

時間: 18:35 (22:35 UTC)

予報

当レポートは1時間42分前の20:53(UTC)に作成
予報は26日の 21時(UTC)から 27日の 24時(UTC)まで有効
南/南東の風 8kt
視程: 10km
高度10000ftの雲はほとんどない
高度15000ftの千切れ雲あり
高度24000ftの曇り
27日の 00時(UTC)から 27日の 03時(UTC)まで一時的に
視程: 4.8km
高度4000ftの千切れ雲あり
高度9000ftの曇り
にわか雨, 靄
27日の 0300時(UTC)から
変向風 3kt
視程: 10km
高度4000ftの雲は散在している
高度10000ftの千切れ雲あり
高度23000ftの曇り
27日の 03時(UTC)から 27日の 11時(UTC)まで一時的に
視程: 8.0km
高度3000ftの千切れ雲あり
高度8000ftの曇り
弱いにわか雨, 靄
27日の 1100時(UTC)から
変向風 3kt
視程: 10km
高度3000ftの千切れ雲あり
高度24000ftの千切れ雲あり
27日の 1400時(UTC)から
の風 8kt
視程: 10km
高度2000ftの雲はほとんどない
高度24000ftの雲は散在している
27日の 1700時(UTC)から
北/北西の風 10kt
視程: 10km
高度4000ftの雲は散在している

TAF: CYYZ 262053Z 2621/2724 15008KT P6SM FEW100 BKN150 OVC240 TEMPO 2700/2703 3SM SHRA BR BKN040 OVC090 FM270300 VRB03KT P6SM SCT040 BKN100 OVC230 TEMPO 2703/2711 5SM -SHRA BR BKN030 OVC080 FM271100 VRB03KT P6SM BKN030 BKN240 FM271400 35008KT P6SM FEW020 SCT240 FM271700 34010KT P6SM SCT040 RMK NXT FCST BY 270000Z

4,000以上の空港の気象観測と天気予報(METAR報とTAF報)

利用可能な観測所は地図上に黄色い丸と赤い丸で示す。

丸の上にカーソルを重ねると観測所名を参照できる。

次にクリックすると気象観測と天気予報を参照できる。

マップの切り替え:黒色「×」印の緑ボタンをクリックして拡大、「-」印の緑ボタンをクリックして縮小、緑色の三角印をクリックして隣りの地図に切り替え


METAR-TAF: